Time;durP1;ratioP1;P1;durP2;ratioP2;P2;SDS_P1;SDS_P2;PMS_P1;PMS_P2;Temp;Humidity;BMP_temperature;BMP_pressure;BME280_temperature;BME280_humidity;BME280_pressure;Samples;Min_cycle;Max_cycle;Signal;HPM_P1;HPM_P2
2021/12/11 04:03:07;;;;;;;37.97;20.98;;;-3275.40;94.30;;;;;;5132461;27;20104;-38
2021/12/11 04:05:37;;;;;;;40.30;21.55;;;-3275.40;94.30;;;;;;5131792;28;20076;-38
2021/12/11 04:08:06;;;;;;;34.05;17.73;;;-3275.50;94.40;;;;;;5132022;28;20106;-50
2021/12/11 04:10:32;;;;;;;35.53;21.52;;;-3275.50;94.20;;;;;;5131553;28;20070;-48
2021/12/11 04:13:02;;;;;;;39.97;23.02;;;-3275.60;94.20;;;;;;5131796;28;20028;-49
2021/12/11 04:15:29;;;;;;;38.50;21.42;;;-3275.60;94.20;;;;;;5131866;28;20034;-48
2021/12/11 04:17:55;;;;;;;33.83;21.13;;;-3275.60;94.10;;;;;;5131235;28;20042;-49
2021/12/11 04:20:24;;;;;;;36.70;21.38;;;-3275.60;94.10;;;;;;5131503;27;20027;-48
2021/12/11 04:22:50;;;;;;;38.25;23.23;;;-3275.70;94.10;;;;;;5130395;28;20448;-47
2021/12/11 04:25:18;;;;;;;41.97;22.80;;;-3275.60;94.00;;;;;;5131229;28;20079;-48
2021/12/11 04:27:45;;;;;;;50.40;22.80;;;-3275.70;94.00;;;;;;5131456;27;20387;-50
2021/12/11 04:30:14;;;;;;;37.45;20.00;;;-3275.60;93.90;;;;;;5131280;27;20015;-49
2021/12/11 04:32:40;;;;;;;37.53;19.75;;;-3275.60;93.90;;;;;;5130971;28;20447;-39
2021/12/11 04:35:09;;;;;;;32.05;20.45;;;-3275.50;93.80;;;;;;5131361;27;20132;-38
2021/12/11 04:37:36;;;;;;;31.65;17.58;;;-3275.50;93.80;;;;;;5131117;27;20356;-38
2021/12/11 04:40:14;;;;;;;34.55;20.42;;;-3275.40;93.80;;;;;;5131292;27;20035;-38
2021/12/11 04:42:59;;;;;;;30.33;19.70;;;-3275.40;93.90;;;;;;5131300;27;20041;-38
2021/12/11 04:45:36;;;;;;;38.60;20.55;;;-3275.50;94.10;;;;;;5131157;28;20447;-48
2021/12/11 04:48:19;;;;;;;34.15;19.45;;;-3275.60;94.10;;;;;;5131147;27;20031;-49
2021/12/11 04:50:58;;;;;;;48.92;21.92;;;-3275.60;94.20;;;;;;5131040;27;20101;-52
2021/12/11 04:54:00;;;;;;;47.67;22.75;;;-3275.70;94.20;;;;;;5131429;27;20463;-49
2021/12/11 04:59:35;;;;;;;35.63;21.10;;;-3275.80;94.30;;;;;;5131199;28;20490;-50
2021/12/11 05:10:43;;;;;;;44.05;21.80;;;-3276.00;94.30;;;;;;5130810;27;20019;-48
2021/12/11 05:13:09;;;;;;;45.83;22.88;;;-3276.00;94.20;;;;;;5124318;27;20024;-51
2021/12/11 05:15:40;;;;;;;51.85;23.63;;;-3276.00;94.20;;;;;;5116999;28;20034;-51
2021/12/11 05:18:08;;;;;;;;;;;-3276.00;94.20;;;;;;5117018;28;20020;-49
2021/12/11 05:20:34;;;;;;;59.75;27.55;;;-3276.00;94.20;;;;;;5116542;28;19911;-49
2021/12/11 05:23:00;;;;;;;71.43;26.65;;;-3276.00;94.40;;;;;;5116437;28;20314;-51
2021/12/11 05:25:26;;;;;;;71.35;23.55;;;-3276.10;94.40;;;;;;5116905;28;20500;-52
2021/12/11 05:27:53;;;;;;;73.13;28.20;;;-3276.10;94.50;;;;;;5116669;28;20027;-48
2021/12/11 05:30:32;;;;;;;90.43;28.50;;;-3276.00;94.80;;;;;;5116457;28;20020;-48
2021/12/11 05:32:59;;;;;;;113.50;37.15;;;-3276.00;94.90;;;;;;5116583;28;20485;-48
2021/12/11 05:35:29;;;;;;;105.25;30.33;;;-3275.90;95.00;;;;;;5116460;28;20027;-49
2021/12/11 05:37:56;;;;;;;149.43;39.05;;;-3275.90;95.20;;;;;;5116878;28;20020;-49
2021/12/11 05:40:23;;;;;;;86.72;30.73;;;-3276.00;95.40;;;;;;5116293;28;20533;-51
2021/12/11 05:42:50;;;;;;;145.93;32.50;;;-3276.00;95.40;;;;;;5116314;28;20020;-51
2021/12/11 05:45:16;;;;;;;119.13;34.15;;;-3276.00;95.40;;;;;;5115090;28;20028;-50
2021/12/11 05:47:43;;;;;;;72.50;26.05;;;-3276.00;95.40;;;;;;5116442;28;20110;-48
2021/12/11 05:50:15;;;;;;;116.22;37.03;;;-3275.90;95.50;;;;;;5115164;28;20058;-52
2021/12/11 05:52:41;;;;;;;164.23;38.90;;;-3276.00;95.60;;;;;;5116039;28;20096;-51
2021/12/11 05:55:10;;;;;;;148.13;38.58;;;-3276.10;95.60;;;;;;5116614;28;20504;-49
2021/12/11 05:57:37;;;;;;;141.75;40.65;;;-3276.10;95.50;;;;;;5116370;28;20043;-49
2021/12/11 06:00:08;;;;;;;144.52;39.28;;;-3276.00;95.50;;;;;;5114466;28;20019;-50
2021/12/11 06:02:35;;;;;;;162.18;39.65;;;-3276.10;95.50;;;;;;5115578;28;20614;-51
2021/12/11 06:05:01;;;;;;;107.50;35.63;;;-3276.10;95.60;;;;;;5115995;28;20031;-48
2021/12/11 06:07:29;;;;;;;130.48;36.28;;;-3276.20;95.60;;;;;;5115739;28;20024;-49
2021/12/11 06:10:03;;;;;;;194.55;43.80;;;-3276.10;95.60;;;;;;5115586;28;20018;-48
2021/12/11 06:12:30;;;;;;;111.18;34.25;;;-3276.20;95.70;;;;;;5116405;28;20031;-50
2021/12/11 06:14:56;;;;;;;179.52;45.17;;;-3276.10;95.70;;;;;;5116075;28;20098;-51
2021/12/11 06:17:24;;;;;;;118.80;40.97;;;-3276.20;95.90;;;;;;5115628;28;20435;-48
2021/12/11 06:19:53;;;;;;;117.28;40.90;;;-3276.20;95.90;;;;;;5115302;27;20020;-49
2021/12/11 06:22:22;;;;;;;108.50;39.35;;;-3276.30;96.00;;;;;;5115572;27;20473;-48
2021/12/11 06:24:48;;;;;;;173.32;44.83;;;-3276.40;96.10;;;;;;5114273;28;20527;-48
2021/12/11 06:27:14;;;;;;;130.45;42.33;;;-3276.50;96.00;;;;;;5115810;27;20062;-51
2021/12/11 06:29:40;;;;;;;159.00;45.10;;;-3276.40;96.00;;;;;;5115196;28;20024;-51
2021/12/11 06:32:08;;;;;;;128.52;38.08;;;-3276.60;96.10;;;;;;5114037;28;20031;-49
2021/12/11 06:34:36;;;;;;;144.15;38.83;;;-3276.60;96.10;;;;;;5115470;28;20035;-48
2021/12/11 06:37:04;;;;;;;145.70;39.90;;;-3276.60;96.10;;;;;;5115101;28;20024;-49
2021/12/11 06:39:29;;;;;;;130.95;39.67;;;-3276.60;96.10;;;;;;5115130;28;20055;-49
2021/12/11 06:41:59;;;;;;;151.73;44.20;;;-3276.70;96.10;;;;;;5115184;28;20055;-51
2021/12/11 06:44:28;;;;;;;130.40;43.60;;;-3276.70;96.20;;;;;;5115171;28;20027;-48
2021/12/11 06:46:59;;;;;;;127.78;44.28;;;-3276.70;96.20;;;;;;5115158;28;20028;-52
2021/12/11 06:49:27;;;;;;;138.70;44.53;;;0.00;96.30;;;;;;5115260;27;20024;-52
2021/12/11 06:51:53;;;;;;;145.80;43.70;;;0.00;96.30;;;;;;5114895;28;20479;-50
2021/12/11 06:54:18;;;;;;;162.55;43.00;;;0.10;96.30;;;;;;5115063;28;20051;-49
2021/12/11 06:56:46;;;;;;;168.77;46.85;;;0.20;96.20;;;;;;5113609;28;20023;-50
2021/12/11 06:59:12;;;;;;;127.07;43.63;;;0.20;96.30;;;;;;5115177;28;20027;-50
2021/12/11 07:01:38;;;;;;;126.22;44.90;;;0.10;96.30;;;;;;5114576;28;20124;-48
2021/12/11 07:04:07;;;;;;;124.15;43.03;;;0.10;96.30;;;;;;5114859;28;20031;-50
2021/12/11 07:06:36;;;;;;;140.93;44.28;;;0.10;96.30;;;;;;5114714;28;20020;-50
2021/12/11 07:09:04;;;;;;;127.00;41.80;;;0.30;96.30;;;;;;5114737;28;20235;-51
2021/12/11 07:11:31;;;;;;;162.38;48.67;;;0.20;96.20;;;;;;5114710;28;20050;-50
2021/12/11 07:13:57;;;;;;;138.75;45.97;;;0.30;96.10;;;;;;5114500;28;20560;-49
2021/12/11 07:16:23;;;;;;;133.60;47.05;;;0.30;96.10;;;;;;5114616;28;20024;-49
2021/12/11 07:18:50;;;;;;;138.93;45.78;;;0.20;96.10;;;;;;5113120;28;20028;-49
2021/12/11 07:21:16;;;;;;;138.32;49.13;;;0.30;96.10;;;;;;5114406;28;20108;-52
2021/12/11 07:23:48;;;;;;;150.18;44.53;;;0.30;96.10;;;;;;5114561;28;20024;-52
2021/12/11 07:26:19;;;;;;;146.85;46.47;;;0.20;96.00;;;;;;5115331;28;20027;-53
2021/12/11 07:28:51;;;;;;;147.65;50.90;;;0.30;96.00;;;;;;5114588;28;20024;-50
2021/12/11 07:31:18;;;;;;;133.25;44.28;;;0.30;96.10;;;;;;5114493;28;20114;-50
2021/12/11 07:33:44;;;;;;;133.70;44.45;;;0.40;96.10;;;;;;5114071;28;20056;-52
2021/12/11 07:36:10;;;;;;;98.20;33.15;;;0.30;96.10;;;;;;5114106;28;20506;-52
2021/12/11 07:38:36;;;;;;;114.95;41.60;;;0.30;96.00;;;;;;5114107;28;20024;-51
2021/12/11 07:41:08;;;;;;;125.43;39.25;;;0.40;96.10;;;;;;5114136;28;20035;-51
2021/12/11 07:43:35;;;;;;;126.82;43.03;;;0.40;96.10;;;;;;5113664;28;20483;-49
2021/12/11 07:46:03;;;;;;;98.10;36.97;;;0.40;96.00;;;;;;5114769;28;20416;-51
2021/12/11 07:48:29;;;;;;;127.75;43.30;;;0.40;96.00;;;;;;5114812;28;20077;-48
2021/12/11 07:50:55;;;;;;;138.68;46.65;;;0.40;95.90;;;;;;5113978;28;20020;-51
2021/12/11 07:53:21;;;;;;;109.78;35.97;;;0.50;95.90;;;;;;5114415;28;20016;-50
2021/12/11 07:55:47;;;;;;;118.35;43.22;;;0.50;95.90;;;;;;5113923;28;20023;-50
2021/12/11 07:58:13;;;;;;;96.60;37.40;;;0.40;95.80;;;;;;5113901;28;20034;-51
2021/12/11 14:03:06;;;;;;;82.80;32.13;;;4.00;92.30;;;;;;5031258;28;20104;-39
2021/12/11 14:05:33;;;;;;;80.00;32.53;;;4.20;92.40;;;;;;5033599;28;20155;-41
2021/12/11 14:08:06;;;;;;;79.30;35.53;;;4.30;92.40;;;;;;5030587;28;20018;-39
2021/12/11 14:10:33;;;;;;;86.10;35.03;;;4.10;92.20;;;;;;5031070;28;20084;-39
2021/12/11 14:13:03;;;;;;;86.78;34.60;;;4.10;92.40;;;;;;5030590;28;20026;-38
2021/12/11 14:15:30;;;;;;;89.85;32.92;;;4.20;92.30;;;;;;5029968;28;20036;-40
2021/12/11 14:17:56;;;;;;;74.93;33.15;;;4.10;92.30;;;;;;5029104;28;20025;-39
2021/12/11 14:20:26;;;;;;;75.88;31.88;;;4.20;92.30;;;;;;5029852;28;20025;-40
2021/12/11 14:22:52;;;;;;;76.10;33.15;;;4.30;92.30;;;;;;5029583;28;20026;-38
2021/12/11 14:25:19;;;;;;;74.05;34.05;;;4.30;92.20;;;;;;5029824;28;20592;-39
2021/12/11 14:27:47;;;;;;;88.72;34.17;;;4.30;92.20;;;;;;5028463;28;20482;-39
2021/12/11 14:30:15;;;;;;;81.63;32.53;;;4.30;92.30;;;;;;5029807;28;20078;-38
2021/12/11 14:32:44;;;;;;;81.45;34.15;;;4.30;92.30;;;;;;5029875;28;20030;-41
2021/12/11 14:35:16;;;;;;;70.18;30.33;;;4.30;92.30;;;;;;5030136;28;20088;-39
2021/12/11 14:37:43;;;;;;;84.05;33.40;;;4.50;92.40;;;;;;5029821;28;20478;-40
2021/12/11 14:40:12;;;;;;;77.65;29.90;;;4.50;92.00;;;;;;5030485;28;20029;-40
2021/12/11 14:42:39;;;;;;;75.40;29.95;;;4.30;92.00;;;;;;5029586;28;20536;-39
2021/12/11 14:45:13;;;;;;;74.55;32.38;;;4.20;92.20;;;;;;5031364;28;20050;-40
2021/12/11 14:47:39;;;;;;;89.57;32.75;;;4.20;92.50;;;;;;5029925;28;20032;-40
2021/12/11 14:50:08;;;;;;;78.57;32.17;;;4.00;93.00;;;;;;5030875;28;20024;-39
2021/12/11 14:52:34;;;;;;;72.57;29.50;;;4.10;93.20;;;;;;5029436;28;20079;-38
2021/12/11 14:55:06;;;;;;;82.18;33.95;;;4.20;93.30;;;;;;5029027;28;20025;-38
2021/12/11 14:57:33;;;;;;;72.00;29.52;;;4.00;93.30;;;;;;5029324;28;20029;-39
2021/12/11 15:00:00;;;;;;;77.13;30.40;;;4.00;93.40;;;;;;5027673;28;20029;-38
2021/12/11 15:02:34;;;;;;;102.20;33.63;;;4.00;93.50;;;;;;5028779;28;20379;-38
2021/12/11 15:05:03;;;;;;;90.78;33.05;;;4.10;93.40;;;;;;5028699;28;20108;-40
2021/12/11 15:07:30;;;;;;;77.35;30.40;;;3.90;93.70;;;;;;5028587;28;20025;-40
2021/12/11 15:09:58;;;;;;;80.55;32.35;;;3.90;93.90;;;;;;5028903;28;20029;-39
2021/12/11 15:12:24;;;;;;;82.72;30.58;;;3.90;94.10;;;;;;5025882;28;20076;-45
2021/12/11 15:14:50;;;;;;;79.82;28.17;;;4.00;94.10;;;;;;5015253;28;20053;-39
2021/12/11 15:17:22;;;;;;;78.75;31.77;;;3.90;93.90;;;;;;5015642;28;20033;-39
2021/12/11 15:19:54;;;;;;;68.93;26.23;;;3.80;94.00;;;;;;5016079;28;20028;-38
2021/12/11 15:22:25;;;;;;;78.10;28.95;;;3.80;94.10;;;;;;5014174;28;20434;-39
2021/12/11 15:24:53;;;;;;;83.10;34.45;;;3.90;94.20;;;;;;5015647;28;20374;-39
2021/12/11 15:27:25;;;;;;;76.22;30.25;;;3.90;94.10;;;;;;5015404;28;20033;-39
2021/12/11 15:29:55;;;;;;;83.28;28.45;;;3.90;94.00;;;;;;5015395;28;20030;-38
2021/12/11 15:32:21;;;;;;;91.85;32.78;;;3.80;93.80;;;;;;5014763;28;20423;-39
2021/12/11 15:34:46;;;;;;;86.50;30.30;;;3.90;94.00;;;;;;5014922;28;20124;-39
2021/12/11 15:37:14;;;;;;;80.88;29.13;;;3.80;93.80;;;;;;5014977;28;20026;-38
2021/12/11 15:39:48;;;;;;;88.70;29.65;;;3.80;93.90;;;;;;5015149;28;20125;-38
2021/12/11 15:42:15;;;;;;;79.50;32.75;;;3.80;94.00;;;;;;5014685;28;20022;-39
2021/12/11 15:44:48;;;;;;;93.15;30.85;;;3.80;94.10;;;;;;5014922;28;20501;-40
2021/12/11 15:47:26;;;;;;;88.82;30.70;;;3.80;94.10;;;;;;5015240;28;20072;-39
2021/12/11 15:49:52;;;;;;;83.95;31.42;;;3.80;94.20;;;;;;5015218;28;20022;-38
2021/12/11 15:52:18;;;;;;;90.57;31.83;;;3.80;94.40;;;;;;5015014;28;20026;-39
2021/12/11 15:54:45;;;;;;;80.57;30.15;;;3.80;94.40;;;;;;5014905;28;20037;-39
2021/12/11 15:57:12;;;;;;;88.35;35.15;;;3.80;94.40;;;;;;5014829;28;20108;-38
2021/12/11 15:59:43;;;;;;;73.85;29.75;;;3.80;94.30;;;;;;5015591;28;20029;-39
2021/12/11 16:02:09;;;;;;;88.68;35.15;;;3.70;94.40;;;;;;4997337;28;20050;-38
2021/12/11 16:04:36;;;;;;;87.03;32.22;;;3.70;94.60;;;;;;5013784;28;20521;-39
2021/12/11 16:07:06;;;;;;;91.00;31.15;;;3.80;94.60;;;;;;5014202;28;20018;-38
2021/12/11 16:09:35;;;;;;;82.63;31.70;;;3.70;94.60;;;;;;5014785;28;20088;-38
2021/12/11 16:12:08;;;;;;;90.32;33.65;;;3.80;94.50;;;;;;5014851;28;20038;-39
2021/12/11 16:14:37;;;;;;;94.47;35.15;;;3.80;94.50;;;;;;5014940;28;20030;-42
2021/12/11 16:17:05;;;;;;;85.00;31.35;;;3.90;94.50;;;;;;5014713;28;20489;-39
2021/12/11 16:19:33;;;;;;;76.28;30.73;;;3.80;94.20;;;;;;5014585;28;20108;-38
2021/12/11 16:22:05;;;;;;;82.63;33.70;;;3.80;94.20;;;;;;5014660;28;20101;-38
2021/12/11 16:24:36;;;;;;;74.82;29.75;;;3.80;94.20;;;;;;5014277;28;20374;-39
2021/12/11 16:27:01;;;;;;;76.60;31.60;;;3.70;94.30;;;;;;5014471;28;20030;-38
2021/12/11 16:29:27;;;;;;;82.85;31.83;;;3.70;94.30;;;;;;5014403;28;20025;-38
2021/12/11 16:31:53;;;;;;;76.80;28.95;;;3.80;94.40;;;;;;5014206;28;20037;-40
2021/12/11 16:34:18;;;;;;;80.00;30.77;;;3.60;94.30;;;;;;5013563;28;20026;-38
2021/12/11 16:36:48;;;;;;;66.80;27.58;;;3.70;94.30;;;;;;5014166;28;20022;-39
2021/12/11 16:39:17;;;;;;;77.18;26.65;;;3.70;94.20;;;;;;5014052;28;20069;-39
2021/12/11 16:41:52;;;;;;;75.43;28.10;;;3.60;94.10;;;;;;5014174;28;20029;-38
2021/12/11 16:44:20;;;;;;;67.82;27.38;;;3.50;94.10;;;;;;5014117;28;20364;-39
2021/12/11 16:47:06;;;;;;;62.15;26.83;;;3.60;94.20;;;;;;5014196;28;20021;-38
2021/12/11 16:49:33;;;;;;;79.25;29.05;;;3.60;94.10;;;;;;5013949;28;20090;-40
2021/12/11 16:52:01;;;;;;;73.00;29.70;;;3.60;94.10;;;;;;5012431;28;20026;-38
2021/12/11 16:54:30;;;;;;;79.85;28.85;;;3.80;94.20;;;;;;5013755;28;20098;-39
2021/12/11 16:56:56;;;;;;;75.30;28.75;;;3.80;94.00;;;;;;5012537;28;20111;-38
2021/12/11 16:59:22;;;;;;;67.25;27.35;;;3.70;94.00;;;;;;5014110;28;20034;-42
2021/12/11 17:01:50;;;;;;;62.03;25.05;;;3.60;94.00;;;;;;5013700;28;20564;-38
2021/12/11 17:04:18;;;;;;;81.25;30.92;;;3.70;94.00;;;;;;5013712;28;20442;-38
2021/12/11 17:06:55;;;;;;;91.35;35.83;;;3.80;94.10;;;;;;5013953;28;20385;-39
2021/12/11 17:09:23;;;;;;;74.13;26.58;;;3.80;94.00;;;;;;5013838;28;20461;-40
2021/12/11 17:11:49;;;;;;;80.63;30.92;;;3.80;94.00;;;;;;5013899;28;20025;-39
2021/12/11 17:14:16;;;;;;;86.95;31.50;;;3.80;93.90;;;;;;5013110;28;20034;-39
2021/12/11 17:16:43;;;;;;;81.85;32.92;;;3.80;94.10;;;;;;5014144;28;20149;-47
2021/12/11 17:19:11;;;;;;;90.47;32.17;;;3.80;94.30;;;;;;5012422;28;20049;-39
2021/12/11 17:21:39;;;;;;;99.97;35.67;;;3.70;94.50;;;;;;5013548;28;20080;-39
2021/12/11 17:24:06;;;;;;;92.53;33.83;;;3.80;94.80;;;;;;5013720;28;20022;-39
2021/12/11 17:26:33;;;;;;;100.45;37.50;;;3.70;94.90;;;;;;5012206;28;20022;-39
2021/12/11 17:29:06;;;;;;;95.47;36.72;;;3.80;94.90;;;;;;5013773;28;20022;-39
2021/12/11 17:31:33;;;;;;;98.63;38.22;;;3.70;94.90;;;;;;5013921;28;20030;-39
2021/12/11 17:33:59;;;;;;;111.53;36.13;;;3.80;95.10;;;;;;5012050;28;20022;-38
2021/12/11 17:36:25;;;;;;;100.68;33.83;;;3.80;95.10;;;;;;5012920;28;20390;-40
2021/12/11 17:38:54;;;;;;;104.75;38.03;;;3.80;95.10;;;;;;5013260;28;20030;-38
2021/12/11 17:41:20;;;;;;;94.65;35.65;;;3.80;95.10;;;;;;5013272;28;20032;-38
2021/12/11 17:43:46;;;;;;;120.28;41.08;;;3.80;95.20;;;;;;5013213;28;20041;-39
2021/12/11 17:46:18;;;;;;;107.22;37.53;;;3.90;95.10;;;;;;5013193;28;20466;-39
2021/12/11 17:48:46;;;;;;;107.00;37.92;;;3.90;95.00;;;;;;5011726;28;20028;-38
2021/12/11 17:51:12;;;;;;;100.85;35.60;;;3.80;95.10;;;;;;5012851;28;20070;-37
2021/12/11 17:53:39;;;;;;;123.47;41.10;;;3.90;95.20;;;;;;5012981;28;20026;-39
2021/12/11 17:56:06;;;;;;;123.13;37.83;;;4.00;95.00;;;;;;5011546;28;20101;-39
2021/12/11 17:58:38;;;;;;;120.97;40.10;;;3.80;94.90;;;;;;5012962;28;20022;-39
2021/12/11 18:01:18;;;;;;;131.27;39.10;;;4.00;94.90;;;;;;5012870;28;20042;-39
2021/12/11 18:03:48;;;;;;;113.15;40.88;;;3.90;94.80;;;;;;5013055;28;20048;-39
2021/12/11 18:06:17;;;;;;;95.75;36.65;;;3.80;94.80;;;;;;5013411;28;20489;-39
2021/12/11 18:08:43;;;;;;;103.93;34.83;;;3.90;94.80;;;;;;5012755;28;20097;-39
2021/12/11 18:11:12;;;;;;;110.28;37.35;;;4.00;94.80;;;;;;5012963;28;20029;-40
2021/12/11 18:13:44;;;;;;;99.97;35.38;;;4.00;94.70;;;;;;5012953;28;20030;-39
2021/12/11 18:16:21;;;;;;;112.35;38.40;;;4.00;94.70;;;;;;5012763;28;20088;-39
2021/12/11 18:19:31;;;;;;;123.63;42.83;;;4.10;94.60;;;;;;5010662;28;20030;-38
2021/12/11 18:22:01;;;;;;;101.25;40.03;;;4.10;94.40;;;;;;4990845;28;20046;-39
2021/12/11 18:24:28;;;;;;;100.20;38.17;;;4.00;94.40;;;;;;5007895;28;20072;-39
2021/12/11 18:26:58;;;;;;;111.85;40.45;;;4.20;94.50;;;;;;5011298;28;20053;-39
2021/12/11 18:29:28;;;;;;;113.78;41.80;;;4.30;94.30;;;;;;5012827;28;20355;-39
2021/12/11 18:31:55;;;;;;;;;;;4.30;94.00;;;;;;5012520;28;20096;-39
2021/12/11 18:34:22;;;;;;;109.20;40.60;;;4.30;93.90;;;;;;5013053;28;20004;-39
2021/12/11 18:36:56;;;;;;;116.40;41.22;;;4.30;93.70;;;;;;5012586;28;20072;-39
2021/12/11 18:39:28;;;;;;;105.25;42.05;;;4.20;93.80;;;;;;5011641;28;20064;-40
2021/12/11 18:42:01;;;;;;;97.00;39.08;;;4.30;94.00;;;;;;5014233;28;20041;-41
2021/12/11 18:44:28;;;;;;;104.50;39.45;;;4.30;93.80;;;;;;5016592;28;20037;-40
2021/12/11 18:46:56;;;;;;;93.75;39.28;;;4.30;93.80;;;;;;5017437;28;20067;-41
2021/12/11 18:49:29;;;;;;;96.68;37.67;;;4.30;93.90;;;;;;5020246;28;20101;-40
2021/12/11 18:52:04;;;;;;;105.35;38.78;;;4.20;94.00;;;;;;5022721;28;20022;-41
2021/12/11 18:54:33;;;;;;;107.75;38.15;;;4.20;94.10;;;;;;5021589;28;20022;-40
2021/12/11 18:57:10;;;;;;;100.40;39.08;;;4.30;94.10;;;;;;5017071;28;20033;-40
2021/12/11 18:59:39;;;;;;;102.38;42.15;;;4.40;94.10;;;;;;5016962;28;20564;-40
2021/12/11 19:02:14;;;;;;;105.90;40.88;;;4.50;94.10;;;;;;5018135;28;20050;-41
2021/12/11 19:04:43;;;;;;;101.03;40.72;;;4.50;93.80;;;;;;5020518;28;20450;-41
2021/12/11 19:07:12;;;;;;;99.07;38.20;;;4.50;93.70;;;;;;5022757;28;20087;-42
2021/12/11 19:09:38;;;;;;;107.88;42.20;;;4.50;93.60;;;;;;5021598;28;20065;-41
2021/12/11 19:12:11;;;;;;;100.15;41.25;;;4.40;93.70;;;;;;5022963;28;20026;-54
2021/12/11 19:14:40;;;;;;;87.45;36.30;;;4.30;93.80;;;;;;5021122;28;20037;-54
2021/12/11 19:17:06;;;;;;;117.97;39.28;;;4.30;93.90;;;;;;5019380;28;20149;-52
2021/12/11 19:19:34;;;;;;;98.20;38.20;;;4.40;94.10;;;;;;5021061;28;20025;-56
2021/12/11 19:22:11;;;;;;;95.07;36.00;;;4.40;93.90;;;;;;5019737;28;20438;-53
2021/12/11 19:24:38;;;;;;;96.47;37.17;;;4.40;93.90;;;;;;5019961;28;20086;-53
2021/12/11 19:27:07;;;;;;;81.18;33.85;;;4.60;93.90;;;;;;5019900;28;20039;-55
2021/12/11 19:29:41;;;;;;;80.97;33.78;;;4.40;93.80;;;;;;5019448;28;20042;-53
2021/12/11 19:32:09;;;;;;;93.07;36.58;;;4.40;93.80;;;;;;5018234;28;20041;-53
2021/12/11 19:34:37;;;;;;;91.63;35.58;;;4.50;93.60;;;;;;5019194;28;20034;-54
2021/12/11 19:37:05;;;;;;;79.70;34.25;;;4.50;93.70;;;;;;5019763;28;20033;-56
2021/12/11 19:39:39;;;;;;;80.22;33.72;;;4.50;93.60;;;;;;5021073;28;20032;-52
2021/12/11 19:42:06;;;;;;;65.05;31.75;;;4.50;93.80;;;;;;5020669;28;20080;-54
2021/12/11 19:44:32;;;;;;;81.80;36.55;;;4.50;93.80;;;;;;5020441;28;20030;-55
2021/12/11 19:47:00;;;;;;;78.65;33.30;;;4.50;93.90;;;;;;5020607;28;20018;-52
2021/12/11 19:49:31;;;;;;;65.85;30.63;;;4.50;93.80;;;;;;5018100;28;20029;-51
2021/12/11 19:52:00;;;;;;;66.32;29.30;;;4.50;94.00;;;;;;5019981;28;20030;-54
2021/12/11 19:54:28;;;;;;;59.05;28.23;;;4.50;94.10;;;;;;5021082;28;20089;-54
2021/12/11 19:56:58;;;;;;;57.00;25.75;;;4.50;94.20;;;;;;5020631;28;20029;-50
2021/12/11 19:59:41;;;;;;;69.43;28.33;;;4.50;94.20;;;;;;5018804;28;20040;-49
2021/12/11 20:02:15;;;;;;;46.58;24.45;;;4.70;94.20;;;;;;5017040;28;20073;-50
2021/12/11 20:04:43;;;;;;;42.72;21.15;;;4.60;94.10;;;;;;5016451;28;20076;-52
2021/12/11 20:07:13;;;;;;;46.53;22.33;;;4.60;94.10;;;;;;5016672;28;20029;-52
2021/12/11 20:09:49;;;;;;;43.15;20.10;;;4.70;94.10;;;;;;5014928;28;20316;-51
2021/12/11 20:12:27;;;;;;;43.20;20.83;;;4.80;93.90;;;;;;5015053;28;20032;-50
2021/12/11 20:14:57;;;;;;;46.15;20.90;;;4.80;93.70;;;;;;5016398;28;20025;-50
2021/12/11 20:17:29;;;;;;;33.90;19.63;;;4.80;93.60;;;;;;5016742;28;20386;-53
2021/12/11 20:19:56;;;;;;;44.85;18.77;;;4.80;93.30;;;;;;5017647;28;20037;-51
2021/12/11 20:22:24;;;;;;;35.50;19.02;;;4.90;93.30;;;;;;5018285;28;20026;-50
2021/12/11 20:24:51;;;;;;;35.65;17.65;;;4.80;93.30;;;;;;5018224;28;20492;-50
2021/12/11 20:27:20;;;;;;;33.45;18.13;;;4.80;93.10;;;;;;5017713;28;20388;-51
2021/12/11 20:30:04;;;;;;;37.08;17.73;;;4.90;93.00;;;;;;5016832;28;20022;-50
2021/12/11 20:32:30;;;;;;;35.45;17.67;;;4.90;92.60;;;;;;5016224;28;20029;-53
2021/12/11 20:34:59;;;;;;;37.30;16.85;;;4.90;92.70;;;;;;5017150;28;20393;-51
2021/12/11 20:37:30;;;;;;;37.22;17.17;;;4.80;92.60;;;;;;5017600;28;20036;-49
2021/12/11 20:39:58;;;;;;;46.13;18.20;;;4.90;92.50;;;;;;5017211;28;20029;-50
2021/12/11 20:42:26;;;;;;;32.65;15.65;;;4.90;92.30;;;;;;5015803;28;20037;-50
2021/12/11 20:44:57;;;;;;;35.75;16.00;;;4.90;92.20;;;;;;5016584;28;20077;-51
2021/12/11 20:47:25;;;;;;;38.80;17.80;;;4.90;92.00;;;;;;5015719;28;20036;-50
2021/12/11 20:49:55;;;;;;;29.17;15.38;;;4.90;91.80;;;;;;5014870;28;20066;-51
2021/12/11 20:52:24;;;;;;;36.17;15.80;;;4.80;91.50;;;;;;5013095;28;20033;-58
2021/12/11 20:54:56;;;;;;;52.10;17.95;;;4.90;91.50;;;;;;5014658;28;20083;-53
2021/12/11 20:57:23;;;;;;;33.42;13.82;;;4.90;91.30;;;;;;5014753;28;20160;-51
2021/12/11 20:59:48;;;;;;;25.90;12.68;;;4.90;91.40;;;;;;5012931;28;20030;-49
2021/12/11 21:02:17;;;;;;;35.50;13.70;;;4.80;91.30;;;;;;5014180;28;20057;-50
2021/12/11 21:04:57;;;;;;;30.80;13.77;;;4.80;91.20;;;;;;5014366;28;20101;-39
2021/12/11 21:07:24;;;;;;;31.50;13.93;;;4.80;91.20;;;;;;5013996;28;20026;-38
2021/12/11 21:10:19;;;;;;;35.28;14.95;;;4.70;91.40;;;;;;5014429;28;20438;-38
2021/12/11 21:12:56;;;;;;;30.70;13.65;;;4.60;91.40;;;;;;5012472;28;20037;-38
2021/12/11 21:15:39;;;;;;;40.20;15.20;;;4.50;91.60;;;;;;5014355;28;20037;-38
2021/12/11 21:18:06;;;;;;;35.88;13.88;;;4.40;91.70;;;;;;5012646;28;20030;-40
2021/12/11 21:20:38;;;;;;;27.92;13.00;;;4.40;91.80;;;;;;5013853;28;20034;-38
2021/12/11 21:23:08;;;;;;;25.27;13.27;;;4.50;91.80;;;;;;5014038;28;20427;-38
2021/12/11 21:25:46;;;;;;;35.20;14.23;;;4.50;91.80;;;;;;5013759;28;20191;-39
2021/12/11 21:28:15;;;;;;;33.72;14.48;;;4.60;91.50;;;;;;5014741;28;20382;-38
2021/12/11 21:30:47;;;;;;;26.00;12.15;;;4.60;91.20;;;;;;5013980;28;20489;-39
2021/12/11 21:33:16;;;;;;;27.25;11.98;;;4.60;91.00;;;;;;5012891;28;20483;-39
2021/12/11 21:35:44;;;;;;;30.63;13.05;;;4.70;90.90;;;;;;5014088;28;20022;-38
2021/12/11 21:38:11;;;;;;;29.77;13.18;;;4.60;90.90;;;;;;5013677;28;20053;-39
2021/12/11 21:40:43;;;;;;;24.63;11.80;;;4.70;90.60;;;;;;5013555;28;20029;-40
2021/12/11 21:43:16;;;;;;;28.65;12.55;;;4.80;90.60;;;;;;5013859;28;20521;-40
2021/12/11 21:45:52;;;;;;;26.88;12.35;;;4.80;90.20;;;;;;5014527;28;20050;-39
2021/12/11 21:48:26;;;;;;;28.70;13.35;;;4.80;90.40;;;;;;5013717;28;20101;-39
2021/12/11 21:50:56;;;;;;;32.40;13.35;;;4.80;90.30;;;;;;5013229;28;20026;-38
2021/12/11 21:53:26;;;;;;;29.95;14.43;;;4.80;90.00;;;;;;5013931;28;20049;-39
2021/12/11 21:55:52;;;;;;;27.80;12.48;;;4.70;90.30;;;;;;5013188;28;20029;-41
2021/12/11 21:58:25;;;;;;;36.08;14.13;;;4.70;90.20;;;;;;5013508;28;20128;-38
2021/12/11 22:00:57;;;;;;;25.45;13.32;;;4.70;90.30;;;;;;5012983;28;20026;-39
2021/12/11 22:03:28;;;;;;;19.02;11.27;;;4.60;90.50;;;;;;5013694;28;20431;-38
2021/12/11 22:06:00;;;;;;;29.58;12.73;;;4.60;90.60;;;;;;5013432;28;20030;-39
2021/12/11 22:08:26;;;;;;;34.28;12.70;;;4.50;91.00;;;;;;5012729;28;20044;-37
2021/12/11 22:10:57;;;;;;;33.72;13.65;;;4.50;90.90;;;;;;5013474;28;20025;-38
2021/12/11 22:13:25;;;;;;;23.98;12.82;;;4.60;90.90;;;;;;5013219;28;20018;-39
2021/12/11 22:15:57;;;;;;;26.52;12.88;;;4.50;90.20;;;;;;5011953;28;20030;-38
2021/12/11 22:18:23;;;;;;;34.97;12.95;;;4.50;90.50;;;;;;5013265;28;20029;-38
2021/12/11 22:20:57;;;;;;;21.20;11.50;;;4.50;90.50;;;;;;5012777;28;20053;-39
2021/12/11 22:23:26;;;;;;;29.40;13.52;;;4.40;90.50;;;;;;5014597;28;20379;-39
2021/12/11 22:26:14;;;;;;;32.33;12.35;;;4.30;90.80;;;;;;5015740;28;20066;-37
2021/12/11 22:28:44;;;;;;;21.02;10.27;;;4.30;90.70;;;;;;5016491;28;20134;-38
2021/12/11 22:31:17;;;;;;;35.28;12.57;;;4.30;90.80;;;;;;5016758;28;20527;-38
2021/12/11 22:33:44;;;;;;;28.92;11.60;;;4.30;90.60;;;;;;5015685;28;20037;-38
2021/12/11 22:36:11;;;;;;;33.42;12.75;;;4.30;90.40;;;;;;5015509;28;20363;-38
2021/12/11 22:38:39;;;;;;;23.90;13.73;;;4.30;90.50;;;;;;5015938;28;20433;-38
2021/12/11 22:41:19;;;;;;;31.42;12.77;;;4.20;90.40;;;;;;5017433;28;20460;-38
2021/12/11 22:43:53;;;;;;;38.63;12.82;;;4.20;90.70;;;;;;4999390;28;20024;-40
2021/12/11 22:46:23;;;;;;;24.73;12.15;;;4.10;90.70;;;;;;5016291;28;20025;-41
2021/12/11 22:48:51;;;;;;;26.65;11.23;;;4.10;90.90;;;;;;5016127;28;20030;-38
2021/12/11 22:51:36;;;;;;;22.75;10.18;;;4.00;90.90;;;;;;5017243;28;20128;-39
2021/12/11 22:54:09;;;;;;;39.22;13.30;;;4.00;91.00;;;;;;5017011;28;20072;-39